createdAt,value
2023-05-10T00:00:05.640Z,635.00
2023-05-10T00:01:05.639Z,628.00
2023-05-10T00:02:05.722Z,631.00
2023-05-10T00:03:05.754Z,626.00
2023-05-10T00:04:05.767Z,631.00
2023-05-10T00:05:05.681Z,632.00
2023-05-10T00:06:05.677Z,631.00
2023-05-10T00:07:05.667Z,632.00
2023-05-10T00:08:05.670Z,633.00
2023-05-10T00:09:05.648Z,627.00
2023-05-10T00:10:05.632Z,639.00
2023-05-10T00:11:05.623Z,639.00
2023-05-10T00:12:05.609Z,636.00
2023-05-10T00:13:05.632Z,631.00
2023-05-10T00:14:05.574Z,636.00
2023-05-10T00:15:05.564Z,632.00
2023-05-10T00:16:05.562Z,636.00
2023-05-10T00:17:05.533Z,626.00
2023-05-10T00:18:05.597Z,627.00
2023-05-10T00:19:05.522Z,626.00
2023-05-10T00:20:05.573Z,628.00
2023-05-10T00:21:05.484Z,630.00
2023-05-10T00:22:05.475Z,624.00
2023-05-10T00:23:05.462Z,633.00
2023-05-10T00:24:05.441Z,629.00
2023-05-10T00:25:05.434Z,630.00
2023-05-10T00:26:05.431Z,626.00
2023-05-10T00:27:05.404Z,627.00
2023-05-10T00:28:05.408Z,630.00
2023-05-10T00:29:05.374Z,626.00
2023-05-10T00:30:05.380Z,626.00
2023-05-10T00:31:05.361Z,626.00
2023-05-10T00:32:05.369Z,628.00
2023-05-10T00:33:05.391Z,630.00
2023-05-10T00:34:05.320Z,632.00
2023-05-10T00:35:05.331Z,631.00
2023-05-10T00:36:05.334Z,627.00
2023-05-10T00:37:05.290Z,629.00
2023-05-10T00:38:05.279Z,625.00
2023-05-10T00:39:05.262Z,631.00
2023-05-10T00:40:05.261Z,629.00
2023-05-10T00:41:05.234Z,629.00
2023-05-10T00:42:05.239Z,630.00
2023-05-10T00:43:05.228Z,630.00
2023-05-10T00:44:05.212Z,626.00
2023-05-10T00:45:05.197Z,617.00
2023-05-10T00:46:05.250Z,624.00
2023-05-10T00:47:05.170Z,625.00
2023-05-10T00:48:05.375Z,627.00
2023-05-10T00:49:05.151Z,628.00
2023-05-10T00:50:05.139Z,614.00
2023-05-10T00:51:05.140Z,621.00
2023-05-10T00:52:05.106Z,621.00
2023-05-10T00:53:05.100Z,620.00
2023-05-10T00:54:05.099Z,620.00
2023-05-10T00:55:05.082Z,621.00
2023-05-10T00:56:05.080Z,621.00
2023-05-10T00:57:05.060Z,621.00
2023-05-10T00:58:05.051Z,609.00
2023-05-10T00:59:05.102Z,619.00
2023-05-10T01:00:05.100Z,619.00
2023-05-10T01:01:05.171Z,615.00
2023-05-10T01:02:05.199Z,615.00
2023-05-10T01:03:05.243Z,613.00
2023-05-10T01:04:05.195Z,619.00
2023-05-10T01:05:05.231Z,613.00
2023-05-10T01:06:05.238Z,611.00
2023-05-10T01:07:05.268Z,617.00
2023-05-10T01:08:05.314Z,615.00
2023-05-10T01:09:05.327Z,615.00
2023-05-10T01:10:05.318Z,616.00
2023-05-10T01:11:05.276Z,616.00
2023-05-10T01:12:05.317Z,618.00
2023-05-10T01:13:05.341Z,610.00
2023-05-10T01:14:05.272Z,616.00
2023-05-10T01:15:05.240Z,606.00
2023-05-10T01:16:05.262Z,608.00
2023-05-10T01:17:05.209Z,618.00
2023-05-10T01:18:05.210Z,617.00
2023-05-10T01:19:05.192Z,619.00
2023-05-10T01:20:05.200Z,613.00
2023-05-10T01:21:05.172Z,612.00
2023-05-10T01:22:05.160Z,616.00
2023-05-10T01:23:05.149Z,614.00
2023-05-10T01:24:05.139Z,608.00
2023-05-10T01:25:05.134Z,607.00
2023-05-10T01:26:05.107Z,605.00
2023-05-10T01:27:05.135Z,607.00
2023-05-10T01:28:05.174Z,600.00
2023-05-10T01:29:05.228Z,604.00
2023-05-10T01:30:13.983Z,603.00
2023-05-10T01:31:06.313Z,603.00
2023-05-10T01:32:05.208Z,604.00
2023-05-10T01:33:05.242Z,607.00
2023-05-10T01:34:05.183Z,605.00
2023-05-10T01:35:05.176Z,600.00
2023-05-10T01:36:05.169Z,603.00
2023-05-10T01:37:05.174Z,597.00
2023-05-10T01:38:05.152Z,599.00
2023-05-10T01:39:05.126Z,600.00
2023-05-10T01:40:05.165Z,597.00
2023-05-10T01:41:05.093Z,607.00
2023-05-10T01:42:05.093Z,604.00
2023-05-10T01:43:05.088Z,604.00
2023-05-10T01:44:05.084Z,608.00
2023-05-10T01:45:05.061Z,603.00
2023-05-10T01:46:05.061Z,609.00
2023-05-10T01:47:05.121Z,598.00
2023-05-10T01:48:05.170Z,610.00
2023-05-10T01:49:05.141Z,611.00
2023-05-10T01:50:05.171Z,609.00
2023-05-10T01:51:05.230Z,605.00
2023-05-10T01:52:05.242Z,611.00
2023-05-10T01:53:05.270Z,605.00
2023-05-10T01:54:05.306Z,595.00
2023-05-10T01:55:05.339Z,610.00
2023-05-10T01:56:05.377Z,609.00
2023-05-10T01:57:05.404Z,606.00
2023-05-10T01:58:05.430Z,602.00
2023-05-10T01:59:05.473Z,605.00
2023-05-10T02:00:05.502Z,609.00
2023-05-10T02:01:05.576Z,602.00
2023-05-10T02:02:05.569Z,599.00
2023-05-10T02:03:05.675Z,604.00
2023-05-10T02:04:05.755Z,603.00
2023-05-10T02:05:05.684Z,603.00
2023-05-10T02:06:05.695Z,598.00
2023-05-10T02:07:05.690Z,599.00
2023-05-10T02:08:05.679Z,597.00
2023-05-10T02:09:05.679Z,600.00
2023-05-10T02:10:05.671Z,598.00
2023-05-10T02:11:05.653Z,607.00
2023-05-10T02:12:05.657Z,596.00
2023-05-10T02:13:05.688Z,603.00
2023-05-10T02:14:05.651Z,607.00
2023-05-10T02:15:05.636Z,607.00
2023-05-10T02:16:05.679Z,608.00
2023-05-10T02:17:05.612Z,610.00
2023-05-10T02:18:05.653Z,608.00
2023-05-10T02:19:05.592Z,604.00
2023-05-10T02:20:05.588Z,600.00
2023-05-10T02:21:05.571Z,610.00
2023-05-10T02:22:05.608Z,604.00
2023-05-10T02:23:05.661Z,605.00
2023-05-10T02:24:05.714Z,605.00
2023-05-10T02:25:05.758Z,605.00
2023-05-10T02:26:05.811Z,607.00
2023-05-10T02:27:05.854Z,600.00
2023-05-10T02:28:05.901Z,607.00
2023-05-10T02:29:05.948Z,605.00
2023-05-10T02:30:05.992Z,605.00
2023-05-10T02:31:06.054Z,601.00
2023-05-10T02:32:06.126Z,606.00
2023-05-10T02:33:06.189Z,606.00
2023-05-10T02:34:06.205Z,604.00
2023-05-10T02:35:06.242Z,603.00
2023-05-10T02:36:06.288Z,602.00
2023-05-10T02:37:06.341Z,608.00
2023-05-10T02:38:06.384Z,611.00
2023-05-10T02:39:06.444Z,602.00
2023-05-10T02:40:06.492Z,606.00
2023-05-10T02:41:06.550Z,608.00
2023-05-10T02:42:06.595Z,608.00
2023-05-10T02:43:06.640Z,609.00
2023-05-10T02:44:06.686Z,609.00
2023-05-10T02:45:06.744Z,612.00
2023-05-10T02:46:06.806Z,606.00
2023-05-10T02:47:06.853Z,602.00
2023-05-10T02:48:06.925Z,607.00
2023-05-10T02:49:06.946Z,605.00
2023-05-10T02:50:06.982Z,608.00
2023-05-10T02:51:07.046Z,603.00
2023-05-10T02:52:07.096Z,604.00
2023-05-10T02:53:07.151Z,602.00
2023-05-10T02:54:07.194Z,609.00
2023-05-10T02:55:07.250Z,609.00
2023-05-10T02:56:07.296Z,607.00
2023-05-10T02:57:07.342Z,604.00
2023-05-10T02:58:07.400Z,601.00
2023-05-10T02:59:07.456Z,602.00
2023-05-10T03:00:07.504Z,607.00
2023-05-10T03:01:07.580Z,603.00
2023-05-10T03:02:07.607Z,602.00
2023-05-10T03:03:07.758Z,598.00
2023-05-10T03:04:07.761Z,599.00
2023-05-10T03:05:07.758Z,603.00
2023-05-10T03:06:07.813Z,601.00
2023-05-10T03:07:07.859Z,601.00
2023-05-10T03:08:08.031Z,599.00
2023-05-10T03:09:07.979Z,600.00
2023-05-10T03:10:08.020Z,598.00
2023-05-10T03:11:08.065Z,600.00
2023-05-10T03:12:08.075Z,600.00
2023-05-10T03:13:08.088Z,600.00
2023-05-10T03:14:08.050Z,601.00
2023-05-10T03:15:08.090Z,604.00
2023-05-10T03:16:08.049Z,604.00
2023-05-10T03:17:08.048Z,603.00
2023-05-10T03:18:08.066Z,599.00
2023-05-10T03:19:08.033Z,602.00
2023-05-10T03:20:08.024Z,602.00
2023-05-10T03:21:08.015Z,603.00
2023-05-10T03:22:08.014Z,605.00
2023-05-10T03:23:08.062Z,600.00
2023-05-10T03:24:08.141Z,602.00
2023-05-10T03:25:08.175Z,598.00
2023-05-10T03:26:08.230Z,597.00
2023-05-10T03:27:08.317Z,596.00
2023-05-10T03:28:08.332Z,603.00
2023-05-10T03:29:08.386Z,599.00
2023-05-10T03:30:08.435Z,600.00
2023-05-10T03:31:08.584Z,597.00
2023-05-10T03:32:08.536Z,602.00
2023-05-10T03:33:08.652Z,599.00
2023-05-10T03:34:08.655Z,598.00
2023-05-10T03:35:08.715Z,598.00
2023-05-10T03:36:08.737Z,600.00
2023-05-10T03:37:08.789Z,601.00
2023-05-10T03:38:08.854Z,604.00
2023-05-10T03:39:08.904Z,601.00
2023-05-10T03:40:08.981Z,597.00
2023-05-10T03:41:09.018Z,599.00
2023-05-10T03:42:09.060Z,598.00
2023-05-10T03:43:09.113Z,599.00
2023-05-10T03:44:09.209Z,601.00
2023-05-10T03:45:09.221Z,600.00
2023-05-10T03:46:09.266Z,599.00
2023-05-10T03:47:09.416Z,601.00
2023-05-10T03:48:09.398Z,601.00
2023-05-10T03:49:09.325Z,602.00
2023-05-10T03:50:09.308Z,603.00
2023-05-10T03:51:09.301Z,602.00
2023-05-10T03:52:09.294Z,601.00
2023-05-10T03:53:09.299Z,603.00
2023-05-10T03:54:09.294Z,596.00
2023-05-10T03:55:09.277Z,593.00
2023-05-10T03:56:09.295Z,599.00
2023-05-10T03:57:09.265Z,594.00
2023-05-10T03:58:09.266Z,593.00
2023-05-10T03:59:09.316Z,593.00
2023-05-10T04:00:09.352Z,596.00
2023-05-10T04:01:09.409Z,597.00
2023-05-10T04:02:09.523Z,596.00
2023-05-10T04:03:09.574Z,594.00
2023-05-10T04:04:09.636Z,598.00
2023-05-10T04:05:09.609Z,598.00
2023-05-10T04:06:09.684Z,598.00
2023-05-10T04:07:09.723Z,599.00
2023-05-10T04:08:09.794Z,598.00
2023-05-10T04:09:09.854Z,594.00
2023-05-10T04:10:09.881Z,599.00
2023-05-10T04:11:09.934Z,600.00
2023-05-10T04:12:11.086Z,599.00
2023-05-10T04:13:10.059Z,604.00
2023-05-10T04:14:10.078Z,593.00
2023-05-10T04:15:10.115Z,598.00
2023-05-10T04:16:10.153Z,597.00
2023-05-10T04:17:10.341Z,596.00
2023-05-10T04:18:10.307Z,599.00
2023-05-10T04:19:10.313Z,602.00
2023-05-10T04:20:10.299Z,602.00
2023-05-10T04:21:10.296Z,602.00
2023-05-10T04:22:10.294Z,603.00
2023-05-10T04:23:10.289Z,600.00
2023-05-10T04:24:10.282Z,601.00
2023-05-10T04:25:10.274Z,601.00
2023-05-10T04:26:10.270Z,602.00
2023-05-10T04:27:10.263Z,597.00
2023-05-10T04:28:10.252Z,600.00
2023-05-10T04:29:10.278Z,602.00
2023-05-10T04:30:10.247Z,599.00
2023-05-10T04:31:10.271Z,600.00
2023-05-10T04:32:10.284Z,600.00
2023-05-10T04:33:10.250Z,602.00
2023-05-10T04:34:10.229Z,602.00
2023-05-10T04:35:10.248Z,601.00
2023-05-10T04:36:10.221Z,603.00
2023-05-10T04:37:10.220Z,598.00
2023-05-10T04:38:10.197Z,601.00
2023-05-10T04:39:10.193Z,601.00
2023-05-10T04:40:10.191Z,601.00
2023-05-10T04:41:10.237Z,601.00
2023-05-10T04:42:10.235Z,602.00
2023-05-10T04:43:10.299Z,601.00
2023-05-10T04:44:10.338Z,595.00
2023-05-10T04:45:10.401Z,597.00
2023-05-10T04:46:10.469Z,599.00
2023-05-10T04:47:11.997Z,600.00
2023-05-10T04:48:10.530Z,596.00
2023-05-10T04:49:10.583Z,599.00
2023-05-10T04:50:10.621Z,599.00
2023-05-10T04:51:10.671Z,596.00
2023-05-10T04:52:10.732Z,598.00
2023-05-10T04:53:10.767Z,597.00
2023-05-10T04:54:10.820Z,600.00
2023-05-10T04:55:10.902Z,599.00
2023-05-10T04:56:10.903Z,595.00
2023-05-10T04:57:10.943Z,599.00
2023-05-10T04:58:10.997Z,597.00
2023-05-10T04:59:11.044Z,597.00
2023-05-10T05:00:11.088Z,596.00
2023-05-10T05:01:11.117Z,596.00
2023-05-10T05:02:11.062Z,597.00
2023-05-10T05:03:11.189Z,599.00
2023-05-10T05:04:11.059Z,596.00
2023-05-10T05:05:11.036Z,600.00
2023-05-10T05:06:11.039Z,597.00
2023-05-10T05:07:11.028Z,596.00
2023-05-10T05:08:11.024Z,593.00
2023-05-10T05:09:11.028Z,592.00
2023-05-10T05:10:11.013Z,593.00
2023-05-10T05:11:11.009Z,594.00
2023-05-10T05:12:11.033Z,595.00
2023-05-10T05:13:11.095Z,598.00
2023-05-10T05:14:10.999Z,598.00
2023-05-10T05:15:11.008Z,599.00
2023-05-10T05:16:10.987Z,599.00
2023-05-10T05:17:10.992Z,599.00
2023-05-10T05:18:10.998Z,599.00
2023-05-10T05:19:10.978Z,595.00
2023-05-10T05:20:11.027Z,599.00
2023-05-10T05:21:11.051Z,598.00
2023-05-10T05:22:11.127Z,594.00
2023-05-10T05:23:11.161Z,593.00
2023-05-10T05:24:11.218Z,595.00
2023-05-10T05:25:11.258Z,596.00
2023-05-10T05:26:11.309Z,589.00
2023-05-10T05:27:11.335Z,594.00
2023-05-10T05:28:11.385Z,595.00
2023-05-10T05:29:11.451Z,596.00
2023-05-10T05:30:11.493Z,599.00
2023-05-10T05:31:11.614Z,597.00
2023-05-10T05:32:11.625Z,602.00
2023-05-10T05:33:11.710Z,609.00
2023-05-10T05:34:11.685Z,613.00
2023-05-10T05:35:11.753Z,609.00
2023-05-10T05:36:11.768Z,614.00
2023-05-10T05:37:12.644Z,623.00
2023-05-10T05:38:11.872Z,624.00
2023-05-10T05:39:11.947Z,634.00
2023-05-10T05:40:11.971Z,632.00
2023-05-10T05:41:12.043Z,632.00
2023-05-10T05:42:12.049Z,659.00
2023-05-10T05:43:12.154Z,663.00
2023-05-10T05:44:12.188Z,692.00
2023-05-10T05:45:12.210Z,751.00
2023-05-10T05:46:12.338Z,842.00
2023-05-10T05:47:12.328Z,941.00
2023-05-10T05:48:12.428Z,1014.00
2023-05-10T05:49:12.420Z,1055.00
2023-05-10T05:50:12.467Z,1086.00
2023-05-10T05:51:12.496Z,1165.00
2023-05-10T05:52:12.539Z,1194.00
2023-05-10T05:53:12.584Z,1248.00
2023-05-10T05:54:12.656Z,1306.00
2023-05-10T05:55:12.650Z,1346.00
2023-05-10T05:56:12.697Z,1383.00
2023-05-10T05:57:12.724Z,1473.00
2023-05-10T05:58:12.765Z,1532.00
2023-05-10T05:59:12.809Z,1542.00
2023-05-10T06:00:12.795Z,1618.00
2023-05-10T06:01:12.835Z,1656.00
2023-05-10T06:02:12.893Z,1659.00
2023-05-10T06:03:12.874Z,1675.00
2023-05-10T06:04:12.812Z,1708.00
2023-05-10T06:05:12.819Z,1784.00
2023-05-10T06:06:12.774Z,1871.00
2023-05-10T06:07:12.824Z,1944.00
2023-05-10T06:08:12.774Z,1929.00
2023-05-10T06:09:12.753Z,1933.00
2023-05-10T06:10:12.743Z,1945.00
2023-05-10T06:11:12.747Z,1966.00
2023-05-10T06:12:12.750Z,2004.00
2023-05-10T06:13:12.809Z,1935.00
2023-05-10T06:14:12.686Z,1956.00
2023-05-10T06:15:12.804Z,2001.00
2023-05-10T06:16:12.744Z,2069.00
2023-05-10T06:17:12.730Z,2134.00
2023-05-10T06:18:12.694Z,2179.00
2023-05-10T06:19:12.659Z,2167.00
2023-05-10T06:20:12.652Z,2169.00
2023-05-10T06:21:12.626Z,2177.00
2023-05-10T06:22:12.656Z,2190.00
2023-05-10T06:23:12.603Z,2205.00
2023-05-10T06:24:12.603Z,2171.00
2023-05-10T06:25:12.623Z,2184.00
2023-05-10T06:26:12.560Z,2216.00
2023-05-10T06:27:12.606Z,2256.00
2023-05-10T06:28:12.624Z,2309.00
2023-05-10T06:29:12.534Z,2293.00
2023-05-10T06:30:13.665Z,2306.00
2023-05-10T06:31:12.527Z,2298.00
2023-05-10T06:32:12.501Z,2299.00
2023-05-10T06:33:12.560Z,2300.00
2023-05-10T06:34:12.474Z,2302.00
2023-05-10T06:35:12.553Z,2307.00
2023-05-10T06:36:12.547Z,2332.00
2023-05-10T06:37:12.446Z,2323.00
2023-05-10T06:38:12.419Z,2306.00
2023-05-10T06:39:12.424Z,2312.00
2023-05-10T06:40:12.464Z,2341.00
2023-05-10T06:41:12.382Z,2348.00
2023-05-10T06:42:12.425Z,2310.00
2023-05-10T06:43:13.142Z,2325.00
2023-05-10T06:44:12.328Z,2325.00
2023-05-10T06:45:12.360Z,2328.00
2023-05-10T06:46:12.359Z,2288.00
2023-05-10T06:47:12.304Z,2303.00
2023-05-10T06:48:12.343Z,2335.00
2023-05-10T06:49:12.253Z,2336.00
2023-05-10T06:50:12.462Z,2318.00
2023-05-10T06:51:12.233Z,2280.00
2023-05-10T06:52:12.247Z,2214.00
2023-05-10T06:53:12.269Z,2202.00
2023-05-10T06:54:12.211Z,2114.00
2023-05-10T06:55:12.209Z,2087.00
2023-05-10T06:56:12.166Z,2082.00
2023-05-10T06:57:23.437Z,1949.00
2023-05-10T06:58:13.128Z,1946.00
2023-05-10T06:59:12.127Z,1921.00
2023-05-10T07:00:12.194Z,1876.00
2023-05-10T07:01:12.195Z,1820.00
2023-05-10T07:02:12.254Z,1792.00
2023-05-10T07:04:12.057Z,1694.00
2023-05-10T07:05:12.077Z,1663.00
2023-05-10T07:06:21.585Z,1659.00
2023-05-10T07:07:13.020Z,1644.00
2023-05-10T07:08:12.001Z,1609.00
2023-05-10T07:09:11.994Z,1577.00
2023-05-10T07:10:12.011Z,1574.00
2023-05-10T07:11:11.949Z,1577.00
2023-05-10T07:12:14.751Z,1543.00
2023-05-10T07:13:12.006Z,1573.00
2023-05-10T07:14:11.937Z,1534.00
2023-05-10T07:15:11.935Z,1495.00
2023-05-10T07:16:11.973Z,1481.00
2023-05-10T07:17:11.949Z,1470.00
2023-05-10T07:18:12.109Z,1462.00
2023-05-10T07:19:11.877Z,1500.00
2023-05-10T07:20:12.001Z,1479.00
2023-05-10T07:22:11.852Z,1434.00
2023-05-10T07:23:11.837Z,1435.00
2023-05-10T07:24:11.845Z,1437.00
2023-05-10T07:25:11.844Z,1438.00
2023-05-10T07:26:11.831Z,1440.00
2023-05-10T07:27:11.778Z,1442.00
2023-05-10T07:28:11.790Z,1411.00
2023-05-10T07:29:11.777Z,1425.00
2023-05-10T07:30:12.195Z,1415.00
2023-05-10T07:31:11.750Z,1412.00
2023-05-10T07:32:11.759Z,1415.00
2023-05-10T07:33:11.753Z,1430.00
2023-05-10T07:34:11.696Z,1421.00
2023-05-10T07:35:11.686Z,1404.00
2023-05-10T07:37:11.662Z,1401.00
2023-05-10T07:38:11.655Z,1415.00
2023-05-10T07:39:16.239Z,1474.00
2023-05-10T07:40:12.646Z,1476.00
2023-05-10T07:41:11.627Z,1480.00
2023-05-10T07:42:11.635Z,1487.00
2023-05-10T07:43:11.614Z,1502.00
2023-05-10T07:44:11.633Z,1543.00
2023-05-10T07:45:11.601Z,1549.00
2023-05-10T07:46:11.643Z,1547.00
2023-05-10T07:47:11.565Z,1570.00
2023-05-10T07:48:11.555Z,1589.00
2023-05-10T07:49:11.610Z,1590.00
2023-05-10T07:50:11.505Z,1595.00
2023-05-10T07:51:11.518Z,1605.00
2023-05-10T07:52:11.471Z,1629.00
2023-05-10T07:53:11.441Z,1648.00
2023-05-10T07:54:11.449Z,1696.00
2023-05-10T07:55:11.408Z,1687.00
2023-05-10T07:56:11.413Z,1725.00
2023-05-10T07:57:11.443Z,1729.00
2023-05-10T07:58:11.482Z,1743.00
2023-05-10T07:59:12.784Z,1769.00
2023-05-10T08:00:11.588Z,1769.00
2023-05-10T08:01:11.652Z,1805.00
2023-05-10T08:02:11.736Z,1803.00
2023-05-10T08:03:11.839Z,1829.00
2023-05-10T08:04:11.825Z,1856.00
2023-05-10T08:05:12.202Z,1850.00
2023-05-10T08:06:11.903Z,1866.00
2023-05-10T08:07:11.867Z,1867.00
2023-05-10T08:08:11.867Z,1872.00
2023-05-10T08:09:11.865Z,1882.00
2023-05-10T08:10:11.828Z,1893.00
2023-05-10T08:11:11.794Z,1918.00
2023-05-10T08:12:11.776Z,1941.00
2023-05-10T08:13:11.737Z,1942.00
2023-05-10T08:14:11.732Z,1945.00
2023-05-10T08:15:11.735Z,1952.00
2023-05-10T08:16:11.729Z,1966.00
2023-05-10T08:17:11.730Z,1995.00
2023-05-10T08:18:11.731Z,2000.00
2023-05-10T08:19:11.785Z,2019.00
2023-05-10T08:20:11.703Z,2004.00
2023-05-10T08:21:11.632Z,2005.00
2023-05-10T08:22:11.631Z,2006.00
2023-05-10T08:23:11.610Z,2013.00
2023-05-10T08:24:11.598Z,2026.00
2023-05-10T08:25:11.576Z,2044.00
2023-05-10T08:26:11.599Z,2045.00
2023-05-10T08:27:11.599Z,2057.00
2023-05-10T08:28:12.037Z,2059.00
2023-05-10T08:29:11.580Z,2061.00
2023-05-10T08:30:11.619Z,2066.00
2023-05-10T08:31:11.578Z,2068.00
2023-05-10T08:32:11.463Z,2070.00
2023-05-10T08:33:11.423Z,2065.00
2023-05-10T08:34:11.402Z,2065.00
2023-05-10T08:35:11.411Z,2065.00
2023-05-10T08:36:11.402Z,2019.00
2023-05-10T08:37:11.359Z,2002.00
2023-05-10T08:38:11.341Z,1913.00
2023-05-10T08:39:22.917Z,1900.00
2023-05-10T08:40:12.411Z,1896.00
2023-05-10T08:41:11.314Z,1850.00
2023-05-10T08:42:11.347Z,1799.00
2023-05-10T08:43:11.316Z,1687.00
2023-05-10T08:44:11.264Z,1649.00
2023-05-10T08:45:11.327Z,1606.00
2023-05-10T08:46:11.222Z,1512.00
2023-05-10T08:47:11.293Z,1515.00
2023-05-10T08:48:11.301Z,1527.00
2023-05-10T08:49:11.190Z,1546.00
2023-05-10T08:50:11.229Z,1570.00
2023-05-10T08:51:11.154Z,1616.00
2023-05-10T08:52:11.167Z,1631.00
2023-05-10T08:53:11.141Z,1523.00
2023-05-10T08:54:11.140Z,1416.00
2023-05-10T08:55:11.196Z,1394.00
2023-05-10T08:56:11.253Z,1330.00
2023-05-10T08:57:11.326Z,1268.00
2023-05-10T08:58:11.343Z,1245.00
2023-05-10T08:59:11.346Z,1207.00
2023-05-10T09:00:11.368Z,1205.00
2023-05-10T09:01:11.453Z,1265.00
2023-05-10T09:02:11.386Z,1283.00
2023-05-10T09:03:11.457Z,1289.00
2023-05-10T09:04:11.487Z,1282.00
2023-05-10T09:05:11.491Z,1281.00
2023-05-10T09:06:11.428Z,1265.00
2023-05-10T09:07:11.436Z,1235.00
2023-05-10T09:08:11.508Z,1238.00
2023-05-10T09:09:11.486Z,1228.00
2023-05-10T09:10:11.455Z,1213.00
2023-05-10T09:11:11.512Z,1201.00
2023-05-10T09:12:11.631Z,1195.00
2023-05-10T09:13:11.650Z,1182.00
2023-05-10T09:14:11.693Z,1173.00
2023-05-10T09:15:11.781Z,1169.00
2023-05-10T09:16:21.163Z,1139.00
2023-05-10T09:17:12.918Z,1140.00
2023-05-10T09:18:11.892Z,1140.00
2023-05-10T09:19:11.899Z,1125.00
2023-05-10T09:20:11.795Z,1099.00
2023-05-10T09:21:11.834Z,1073.00
2023-05-10T09:22:11.800Z,1052.00
2023-05-10T09:23:11.762Z,1052.00
2023-05-10T09:24:11.766Z,1056.00
2023-05-10T09:25:11.781Z,1036.00
2023-05-10T09:26:11.808Z,1019.00
2023-05-10T09:27:11.934Z,1016.00
2023-05-10T09:28:11.969Z,1006.00
2023-05-10T09:29:11.911Z,986.00
2023-05-10T09:30:11.975Z,947.00
2023-05-10T09:31:12.063Z,957.00
2023-05-10T09:32:13.750Z,919.00
2023-05-10T09:33:12.078Z,951.00
2023-05-10T09:34:12.090Z,931.00
2023-05-10T09:35:12.135Z,710.00
2023-05-10T09:36:12.209Z,665.00
2023-05-10T09:37:12.141Z,661.00
2023-05-10T09:38:12.175Z,706.00
2023-05-10T09:39:12.207Z,739.00
2023-05-10T09:40:12.258Z,773.00
2023-05-10T09:41:12.313Z,880.00
2023-05-10T09:42:12.288Z,881.00
2023-05-10T09:43:12.280Z,895.00
2023-05-10T09:44:12.536Z,920.00
2023-05-10T09:45:12.243Z,977.00
2023-05-10T09:46:12.354Z,1079.00
2023-05-10T09:47:12.241Z,1123.00
2023-05-10T09:48:12.309Z,1185.00
2023-05-10T09:49:12.183Z,1191.00
2023-05-10T09:50:12.266Z,1260.00
2023-05-10T09:51:12.264Z,1287.00
2023-05-10T09:52:12.324Z,1297.00
2023-05-10T09:53:12.375Z,1334.00
2023-05-10T09:54:12.472Z,1358.00
2023-05-10T09:55:12.522Z,1402.00
2023-05-10T09:56:12.518Z,1430.00
2023-05-10T09:57:12.584Z,1467.00
2023-05-10T09:58:12.616Z,1508.00
2023-05-10T09:59:12.680Z,1518.00
2023-05-10T10:00:12.692Z,1530.00
2023-05-10T10:01:12.775Z,1549.00
2023-05-10T10:02:12.817Z,1585.00
2023-05-10T10:03:12.891Z,1610.00
2023-05-10T10:04:12.967Z,1607.00
2023-05-10T10:05:12.976Z,1619.00
2023-05-10T10:06:26.470Z,1639.00
2023-05-10T10:07:13.925Z,1640.00
2023-05-10T10:08:12.919Z,1645.00
2023-05-10T10:09:12.935Z,1656.00
2023-05-10T10:10:12.876Z,1691.00
2023-05-10T10:11:12.869Z,1744.00
2023-05-10T10:12:12.873Z,1784.00
2023-05-10T10:13:12.842Z,1798.00
2023-05-10T10:14:12.850Z,1806.00
2023-05-10T10:15:14.070Z,1837.00
2023-05-10T10:16:14.286Z,1851.00
2023-05-10T10:17:12.781Z,1878.00
2023-05-10T10:18:12.779Z,1870.00
2023-05-10T10:19:12.749Z,1872.00
2023-05-10T10:20:12.768Z,1891.00
2023-05-10T10:21:12.736Z,1887.00
2023-05-10T10:22:12.765Z,1868.00
2023-05-10T10:23:13.191Z,1881.00
2023-05-10T10:24:12.689Z,1869.00
2023-05-10T10:25:12.653Z,1873.00
2023-05-10T10:26:12.728Z,1884.00
2023-05-10T10:27:12.660Z,1895.00
2023-05-10T10:28:12.696Z,1905.00
2023-05-10T10:29:12.667Z,1906.00
2023-05-10T10:30:12.602Z,1904.00
2023-05-10T10:31:12.638Z,1922.00
2023-05-10T10:32:12.572Z,1919.00
2023-05-10T10:33:20.569Z,1889.00
2023-05-10T10:34:13.533Z,1891.00
2023-05-10T10:35:12.507Z,1893.00
2023-05-10T10:36:12.520Z,1890.00
2023-05-10T10:37:12.505Z,1810.00
2023-05-10T10:38:12.641Z,1820.00
2023-05-10T10:39:12.451Z,1818.00
2023-05-10T10:40:12.412Z,1836.00
2023-05-10T10:41:12.444Z,1845.00
2023-05-10T10:42:12.427Z,1816.00
2023-05-10T10:43:12.414Z,1804.00
2023-05-10T10:44:12.383Z,1763.00
2023-05-10T10:45:12.419Z,1694.00
2023-05-10T10:46:12.506Z,1642.00
2023-05-10T10:47:12.662Z,1644.00
2023-05-10T10:48:12.530Z,1608.00
2023-05-10T10:49:12.602Z,1452.00
2023-05-10T10:50:12.615Z,1340.00
2023-05-10T10:51:12.963Z,1196.00
2023-05-10T10:52:12.796Z,1102.00
2023-05-10T10:53:12.816Z,1030.00
2023-05-10T10:54:12.820Z,911.00
2023-05-10T10:55:12.868Z,845.00
2023-05-10T10:56:12.853Z,846.00
2023-05-10T10:57:12.856Z,814.00
2023-05-10T10:58:12.822Z,722.00
2023-05-10T10:59:12.801Z,691.00
2023-05-10T11:00:12.787Z,659.00
2023-05-10T11:01:12.864Z,653.00
2023-05-10T11:02:13.712Z,628.00
2023-05-10T11:03:12.791Z,605.00
2023-05-10T11:04:12.766Z,594.00
2023-05-10T11:05:12.727Z,588.00
2023-05-10T11:06:12.714Z,572.00
2023-05-10T11:07:12.783Z,562.00
2023-05-10T11:08:12.669Z,582.00
2023-05-10T11:09:12.682Z,610.00
2023-05-10T11:10:12.652Z,611.00
2023-05-10T11:11:12.643Z,620.00
2023-05-10T11:12:12.623Z,649.00
2023-05-10T11:13:12.614Z,795.00
2023-05-10T11:14:12.682Z,1020.00
2023-05-10T11:15:13.619Z,1081.00
2023-05-10T11:16:12.657Z,1126.00
2023-05-10T11:17:12.635Z,1151.00
2023-05-10T11:18:12.576Z,1176.00
2023-05-10T11:19:12.573Z,1178.00
2023-05-10T11:20:12.588Z,1186.00
2023-05-10T11:21:14.249Z,1214.00
2023-05-10T11:22:12.485Z,1261.00
2023-05-10T11:23:12.517Z,1334.00
2023-05-10T11:24:12.488Z,1365.00
2023-05-10T11:25:13.220Z,1367.00
2023-05-10T11:26:12.533Z,1379.00
2023-05-10T11:27:12.461Z,1395.00
2023-05-10T11:28:12.483Z,1423.00
2023-05-10T11:29:12.427Z,1459.00
2023-05-10T11:30:12.409Z,1483.00
2023-05-10T11:31:12.476Z,1510.00
2023-05-10T11:32:12.380Z,1489.00
2023-05-10T11:33:12.366Z,1513.00
2023-05-10T11:34:12.371Z,1510.00
2023-05-10T11:35:12.337Z,1499.00
2023-05-10T11:36:12.347Z,1516.00
2023-05-10T11:37:12.353Z,1512.00
2023-05-10T11:38:12.328Z,1529.00
2023-05-10T11:39:12.336Z,1498.00
2023-05-10T11:40:12.345Z,1494.00
2023-05-10T11:41:12.312Z,1499.00
2023-05-10T11:42:12.257Z,1496.00
2023-05-10T11:43:12.229Z,1503.00
2023-05-10T11:44:12.217Z,1498.00
2023-05-10T11:45:12.203Z,1487.00
2023-05-10T11:46:12.220Z,1499.00
2023-05-10T11:47:12.156Z,1499.00
2023-05-10T11:48:12.204Z,1484.00
2023-05-10T11:49:12.141Z,1492.00
2023-05-10T11:50:12.159Z,1475.00
2023-05-10T11:51:12.127Z,1481.00
2023-05-10T11:52:12.095Z,1476.00
2023-05-10T11:53:12.135Z,1484.00
2023-05-10T11:54:12.122Z,1455.00
2023-05-10T11:55:12.064Z,1492.00
2023-05-10T11:56:12.143Z,1468.00
2023-05-10T11:57:12.046Z,1464.00
2023-05-10T11:58:12.025Z,1454.00
2023-05-10T11:59:12.016Z,1444.00
2023-05-10T12:00:12.002Z,1442.00
2023-05-10T12:01:11.990Z,1440.00
2023-05-10T12:02:11.972Z,1446.00
2023-05-10T12:03:12.008Z,1455.00
2023-05-10T12:04:12.018Z,1402.00
2023-05-10T12:05:11.996Z,1417.00
2023-05-10T12:06:11.891Z,1425.00
2023-05-10T12:07:11.873Z,1416.00
2023-05-10T12:08:11.881Z,1415.00
2023-05-10T12:09:12.758Z,1406.00
2023-05-10T12:10:11.865Z,1392.00
2023-05-10T12:11:12.045Z,1393.00
2023-05-10T12:12:11.870Z,1390.00
2023-05-10T12:13:11.850Z,1411.00
2023-05-10T12:14:11.848Z,1397.00
2023-05-10T12:15:11.846Z,1377.00
2023-05-10T12:16:11.874Z,1362.00
2023-05-10T12:17:11.853Z,1368.00
2023-05-10T12:18:11.877Z,1354.00
2023-05-10T12:19:11.951Z,1364.00
2023-05-10T12:20:11.845Z,1374.00